Airport View

Enter AWOS ICAO identifier for current METAR.

ex. KFNL

KAUW 100154Z AUTO 32007KT 10SM -RA FEW035 BKN046 OVC100 21/19 A2983 RMK AO2 LTG DSNT NE RAB51 SLP102 P0000 T02110194

10 Jul 2020 02:43

Frequency: 125.925

Phone: 715-843-7215

Other Area AWOS: KCWA - KRRL - KSTE - KAIG

TAF KAUW 092336Z 1000/1024 VRB04KT P6SM SCT050 BKN120 TEMPO 1001/1002 4SM -TSRA BKN025CB FM100200 23003KT 6SM -SHRA BKN040 TEMPO 1002/1006 4SM -TSRA BR OVC025CB FM100700 30004KT P6SM SCT015 BKN035 FM101100 32008KT P6SM SCT025 BKN120 FM101500 32010G17KT P6SM SCT035